createdAt,value
2017-12-19T00:00:47.402Z,92.50
2017-12-19T00:03:14.901Z,92.50
2017-12-19T00:05:43.105Z,92.50
2017-12-19T00:08:10.532Z,92.50
2017-12-19T00:10:39.065Z,92.60
2017-12-19T00:13:06.492Z,92.60
2017-12-19T00:15:33.921Z,92.60
2017-12-19T00:18:02.120Z,92.70
2017-12-19T00:20:29.552Z,92.50
2017-12-19T00:22:57.753Z,92.50
2017-12-19T00:25:25.446Z,92.50
2017-12-19T00:27:52.904Z,92.50
2017-12-19T00:30:20.335Z,92.50
2017-12-19T00:32:47.780Z,92.60
2017-12-19T00:35:15.224Z,92.60
2017-12-19T00:37:42.650Z,92.60
2017-12-19T00:40:10.106Z,92.70
2017-12-19T00:42:37.535Z,92.70
2017-12-19T00:45:04.961Z,92.70
2017-12-19T00:47:33.172Z,92.80
2017-12-19T00:50:00.601Z,92.80
2017-12-19T00:52:28.040Z,92.80
2017-12-19T00:54:56.249Z,92.90
2017-12-19T00:57:23.680Z,92.80
2017-12-19T00:59:51.873Z,92.90
2017-12-19T01:02:19.601Z,92.90
2017-12-19T01:04:47.806Z,92.90
2017-12-19T01:07:15.231Z,92.90
2017-12-19T01:09:42.672Z,92.90
2017-12-19T01:12:10.104Z,92.90
2017-12-19T01:14:38.298Z,93.20
2017-12-19T01:17:05.754Z,92.90
2017-12-19T01:19:33.177Z,92.90
2017-12-19T01:22:00.610Z,92.90
2017-12-19T01:24:28.048Z,93.00
2017-12-19T01:26:55.490Z,93.00
2017-12-19T01:29:22.917Z,93.00
2017-12-19T01:31:51.126Z,93.00
2017-12-19T01:34:18.545Z,93.00
2017-12-19T01:36:46.743Z,93.00
2017-12-19T01:39:14.259Z,93.00
2017-12-19T01:41:41.672Z,93.00
2017-12-19T01:44:09.097Z,93.00
2017-12-19T01:46:37.569Z,93.00
2017-12-19T01:49:05.760Z,93.00
2017-12-19T01:51:33.186Z,93.00
2017-12-19T01:54:00.625Z,93.00
2017-12-19T01:56:28.089Z,92.90
2017-12-19T01:58:55.492Z,93.00
2017-12-19T02:01:22.932Z,93.00
2017-12-19T02:03:51.129Z,92.90
2017-12-19T02:06:18.552Z,92.90
2017-12-19T02:08:46.232Z,92.90
2017-12-19T02:11:14.437Z,92.90
2017-12-19T02:13:41.868Z,92.90
2017-12-19T02:16:10.080Z,93.00
2017-12-19T02:18:37.505Z,93.00
2017-12-19T02:21:04.928Z,93.00
2017-12-19T02:23:32.596Z,93.00
2017-12-19T02:26:00.788Z,93.00
2017-12-19T02:28:28.991Z,93.00
2017-12-19T02:30:56.435Z,93.00
2017-12-19T02:33:23.938Z,93.00
2017-12-19T02:35:52.070Z,93.00
2017-12-19T02:38:19.572Z,93.00
2017-12-19T02:40:47.001Z,93.00
2017-12-19T02:43:20.511Z,93.00
2017-12-19T02:45:52.429Z,93.00
2017-12-19T02:48:19.860Z,93.00
2017-12-19T02:50:47.303Z,93.00
2017-12-19T02:53:14.760Z,93.00
2017-12-19T02:55:42.189Z,93.00
2017-12-19T02:58:09.638Z,93.00
2017-12-19T03:00:37.061Z,93.00
2017-12-19T03:03:05.261Z,93.00
2017-12-19T03:05:33.045Z,93.00
2017-12-19T03:08:00.470Z,93.00
2017-12-19T03:10:27.906Z,93.00
2017-12-19T03:12:56.440Z,93.00
2017-12-19T03:15:23.888Z,93.00
2017-12-19T03:17:51.308Z,93.00
2017-12-19T03:20:19.540Z,93.00
2017-12-19T03:22:46.981Z,93.00
2017-12-19T03:25:14.409Z,93.00
2017-12-19T03:27:41.849Z,93.00
2017-12-19T03:30:10.042Z,93.00
2017-12-19T03:32:38.391Z,93.00
2017-12-19T03:35:06.108Z,93.00
2017-12-19T03:37:33.532Z,93.00
2017-12-19T03:40:01.725Z,93.00
2017-12-19T03:42:29.157Z,93.00
2017-12-19T03:44:57.352Z,93.00
2017-12-19T03:47:24.774Z,93.00
2017-12-19T03:49:52.213Z,93.00
2017-12-19T03:52:19.643Z,93.00
2017-12-19T03:54:47.084Z,93.00
2017-12-19T03:57:15.585Z,93.00
2017-12-19T03:59:43.000Z,93.00
2017-12-19T04:02:11.200Z,93.00
2017-12-19T04:04:38.632Z,93.00
2017-12-19T04:07:06.831Z,93.00
2017-12-19T04:09:34.293Z,93.00
2017-12-19T04:12:02.065Z,93.00
2017-12-19T04:14:29.496Z,93.00
2017-12-19T04:16:56.920Z,93.00
2017-12-19T04:19:24.357Z,93.00
2017-12-19T04:21:51.789Z,93.20
2017-12-19T04:24:19.224Z,93.10
2017-12-19T04:26:46.659Z,93.10
2017-12-19T04:29:14.918Z,93.10
2017-12-19T04:31:42.344Z,93.10
2017-12-19T04:34:10.118Z,93.10
2017-12-19T04:36:38.297Z,93.50
2017-12-19T04:39:05.736Z,93.10
2017-12-19T04:41:33.183Z,93.10
2017-12-19T04:44:00.616Z,93.10
2017-12-19T04:46:28.045Z,93.20
2017-12-19T04:48:55.477Z,93.20
2017-12-19T04:51:22.912Z,93.20
2017-12-19T04:53:50.355Z,93.20
2017-12-19T04:56:18.140Z,93.20
2017-12-19T04:58:45.573Z,93.20
2017-12-19T05:01:13.000Z,93.20
2017-12-19T05:03:41.224Z,93.20
2017-12-19T05:06:08.662Z,93.20
2017-12-19T05:08:36.852Z,93.20
2017-12-19T05:11:04.306Z,93.20
2017-12-19T05:13:31.745Z,93.20
2017-12-19T05:15:59.934Z,93.20
2017-12-19T05:18:27.387Z,93.20
2017-12-19T05:20:54.809Z,93.20
2017-12-19T05:23:23.034Z,93.20
2017-12-19T05:25:50.469Z,93.20
2017-12-19T05:28:17.893Z,93.20
2017-12-19T05:30:45.321Z,93.20
2017-12-19T05:33:13.084Z,93.20
2017-12-19T05:35:40.520Z,93.20
2017-12-19T05:38:07.944Z,93.20
2017-12-19T05:40:36.161Z,93.20
2017-12-19T05:43:03.605Z,93.20
2017-12-19T05:45:31.041Z,93.20
2017-12-19T05:47:58.739Z,93.20
2017-12-19T05:50:26.165Z,93.20
2017-12-19T05:52:53.590Z,93.20
2017-12-19T05:55:21.032Z,93.20
2017-12-19T05:57:48.472Z,93.20
2017-12-19T06:00:15.893Z,93.20
2017-12-19T06:02:43.329Z,93.20
2017-12-19T06:05:11.528Z,93.20
2017-12-19T06:07:38.948Z,93.20
2017-12-19T06:10:06.421Z,93.20
2017-12-19T06:12:34.669Z,93.20
2017-12-19T06:15:02.105Z,93.20
2017-12-19T06:17:29.553Z,93.20
2017-12-19T06:19:56.985Z,93.20
2017-12-19T06:22:24.405Z,93.20
2017-12-19T06:24:51.849Z,93.30
2017-12-19T06:27:19.289Z,93.30
2017-12-19T06:29:46.727Z,93.30
2017-12-19T06:32:14.221Z,93.30
2017-12-19T06:34:41.669Z,93.30
2017-12-19T06:37:09.098Z,93.30
2017-12-19T06:39:36.868Z,93.30
2017-12-19T06:42:04.303Z,93.30
2017-12-19T06:44:31.724Z,93.30
2017-12-19T06:46:59.176Z,93.30
2017-12-19T06:49:26.593Z,93.30
2017-12-19T06:51:54.049Z,93.30
2017-12-19T06:54:21.476Z,93.30
2017-12-19T06:56:48.912Z,93.30
2017-12-19T06:59:16.344Z,93.30
2017-12-19T07:01:43.789Z,93.30
2017-12-19T07:04:11.251Z,93.30
2017-12-19T07:06:38.669Z,93.30
2017-12-19T07:09:06.106Z,93.30
2017-12-19T07:11:34.297Z,93.40
2017-12-19T07:14:01.720Z,93.40
2017-12-19T07:16:29.167Z,93.40
2017-12-19T07:18:56.596Z,93.40
2017-12-19T07:21:24.021Z,93.40
2017-12-19T07:23:51.461Z,93.40
2017-12-19T07:26:19.662Z,93.40
2017-12-19T07:28:47.094Z,93.40
2017-12-19T07:31:14.522Z,93.40
2017-12-19T07:33:41.953Z,93.50
2017-12-19T07:36:09.385Z,93.50
2017-12-19T07:38:36.859Z,93.50
2017-12-19T07:41:04.260Z,93.80
2017-12-19T07:43:31.689Z,93.50
2017-12-19T07:45:59.151Z,93.80
2017-12-19T07:48:26.560Z,93.50
2017-12-19T07:50:53.993Z,93.50
2017-12-19T07:53:21.429Z,93.50
2017-12-19T07:55:48.878Z,93.50
2017-12-19T07:58:16.313Z,93.50
2017-12-19T08:00:43.768Z,93.60
2017-12-19T08:03:11.200Z,93.60
2017-12-19T08:05:38.636Z,93.60
2017-12-19T08:08:06.099Z,93.60
2017-12-19T08:10:34.329Z,93.60
2017-12-19T08:13:01.749Z,93.60
2017-12-19T08:15:29.193Z,93.60
2017-12-19T08:17:57.404Z,93.60
2017-12-19T08:20:24.829Z,93.60
2017-12-19T08:22:53.340Z,93.60
2017-12-19T08:25:20.769Z,93.60
2017-12-19T08:27:48.200Z,93.60
2017-12-19T08:30:15.889Z,93.60
2017-12-19T08:32:44.099Z,93.60
2017-12-19T08:35:11.534Z,93.60
2017-12-19T08:37:38.978Z,93.60
2017-12-19T08:40:07.180Z,93.60
2017-12-19T08:42:34.635Z,93.60
2017-12-19T08:45:02.068Z,93.60
2017-12-19T08:47:29.493Z,93.60
2017-12-19T08:49:56.925Z,93.60
2017-12-19T08:52:24.668Z,93.60
2017-12-19T08:54:52.073Z,93.70
2017-12-19T08:57:20.320Z,93.70
2017-12-19T08:59:47.988Z,93.70
2017-12-19T09:02:15.495Z,93.60
2017-12-19T09:04:42.883Z,93.70
2017-12-19T09:07:10.334Z,93.60
2017-12-19T09:09:37.752Z,93.60
2017-12-19T09:12:05.998Z,93.60
2017-12-19T09:14:33.394Z,93.60
2017-12-19T09:17:01.617Z,93.50
2017-12-19T09:19:29.161Z,93.50
2017-12-19T09:21:56.636Z,93.40
2017-12-19T09:24:24.080Z,93.40
2017-12-19T09:26:51.512Z,93.40
2017-12-19T09:29:18.949Z,93.40
2017-12-19T09:31:47.171Z,93.30
2017-12-19T09:34:14.600Z,93.30
2017-12-19T09:36:42.082Z,93.30
2017-12-19T09:39:09.552Z,93.30
2017-12-19T09:41:36.986Z,93.40
2017-12-19T09:44:04.426Z,93.30
2017-12-19T09:46:31.921Z,93.40
2017-12-19T09:48:59.345Z,93.40
2017-12-19T09:51:26.829Z,93.40
2017-12-19T09:53:54.277Z,93.40
2017-12-19T09:56:21.747Z,93.30
2017-12-19T09:58:49.191Z,93.30
2017-12-19T10:01:16.616Z,93.30
2017-12-19T10:03:44.814Z,93.20
2017-12-19T10:06:12.246Z,93.20
2017-12-19T10:08:40.468Z,93.20
2017-12-19T10:11:07.907Z,93.20
2017-12-19T10:13:35.801Z,93.10
2017-12-19T10:16:03.245Z,93.10
2017-12-19T10:18:30.669Z,93.10
2017-12-19T10:20:58.161Z,93.00
2017-12-19T10:23:25.588Z,93.00
2017-12-19T10:25:53.016Z,93.00
2017-12-19T10:28:21.257Z,92.90
2017-12-19T10:30:48.672Z,92.90
2017-12-19T10:33:16.153Z,92.80
2017-12-19T10:35:43.597Z,92.80
2017-12-19T10:38:11.067Z,92.80
2017-12-19T10:40:38.490Z,92.80
2017-12-19T10:43:05.985Z,92.80
2017-12-19T10:45:33.439Z,92.80
2017-12-19T10:48:00.893Z,92.80
2017-12-19T10:50:28.448Z,92.70
2017-12-19T10:52:55.913Z,92.80
2017-12-19T10:55:23.341Z,92.70
2017-12-19T10:57:50.830Z,92.70
2017-12-19T11:00:18.255Z,92.70
2017-12-19T11:02:45.682Z,92.60
2017-12-19T11:05:13.906Z,92.60
2017-12-19T11:07:41.382Z,92.50
2017-12-19T11:10:08.800Z,92.40
2017-12-19T11:12:36.239Z,92.30
2017-12-19T11:15:04.429Z,92.30
2017-12-19T11:17:31.850Z,92.20
2017-12-19T11:19:59.293Z,92.20
2017-12-19T11:22:26.717Z,92.10
2017-12-19T11:24:54.219Z,92.50
2017-12-19T11:27:21.750Z,92.10
2017-12-19T11:29:49.178Z,92.20
2017-12-19T11:32:16.675Z,92.10
2017-12-19T11:34:44.125Z,92.10
2017-12-19T11:37:11.572Z,92.10
2017-12-19T11:39:39.050Z,92.10
2017-12-19T11:42:06.805Z,92.00
2017-12-19T11:44:34.257Z,92.00
2017-12-19T11:47:01.721Z,91.90
2017-12-19T11:49:29.213Z,92.00
2017-12-19T11:51:56.873Z,91.90
2017-12-19T11:54:24.416Z,91.90
2017-12-19T11:56:52.632Z,91.90
2017-12-19T11:59:20.053Z,91.90
2017-12-19T12:01:48.288Z,91.90
2017-12-19T12:04:15.759Z,91.80
2017-12-19T12:06:43.215Z,91.80
2017-12-19T12:09:10.677Z,91.80
2017-12-19T12:11:38.125Z,91.80
2017-12-19T12:14:05.556Z,91.70
2017-12-19T12:16:32.989Z,91.70
2017-12-19T12:19:00.497Z,91.70
2017-12-19T12:21:27.929Z,91.60
2017-12-19T12:23:55.414Z,91.60
2017-12-19T12:26:22.861Z,91.60
2017-12-19T12:28:50.325Z,91.60
2017-12-19T12:31:17.748Z,91.70
2017-12-19T12:33:45.263Z,91.70
2017-12-19T12:36:12.673Z,91.70
2017-12-19T12:38:40.098Z,91.70
2017-12-19T12:41:08.303Z,91.70
2017-12-19T12:43:35.782Z,91.70
2017-12-19T12:46:03.217Z,91.70
2017-12-19T12:48:30.661Z,91.70
2017-12-19T12:50:58.865Z,91.70
2017-12-19T12:53:26.288Z,91.70
2017-12-19T12:55:54.557Z,91.70
2017-12-19T12:58:22.785Z,92.00
2017-12-19T13:00:50.217Z,91.70
2017-12-19T13:03:17.654Z,91.70
2017-12-19T13:05:45.861Z,91.70
2017-12-19T13:08:13.285Z,91.70
2017-12-19T13:10:41.506Z,91.70
2017-12-19T13:13:08.929Z,91.70
2017-12-19T13:15:36.359Z,91.70
2017-12-19T13:18:04.904Z,91.70
2017-12-19T13:20:32.328Z,91.70
2017-12-19T13:22:59.866Z,91.60
2017-12-19T13:25:28.073Z,91.70
2017-12-19T13:27:55.502Z,91.60
2017-12-19T13:30:23.733Z,91.60
2017-12-19T13:32:51.162Z,91.60
2017-12-19T13:35:18.585Z,91.60
2017-12-19T13:37:46.780Z,91.60
2017-12-19T13:40:14.242Z,91.60
2017-12-19T13:42:41.728Z,91.60
2017-12-19T13:45:09.181Z,91.60
2017-12-19T13:47:36.633Z,91.60
2017-12-19T13:50:04.089Z,91.60
2017-12-19T13:52:31.545Z,91.70
2017-12-19T13:54:59.001Z,91.70
2017-12-19T13:57:26.429Z,91.70
2017-12-19T13:59:53.859Z,91.70
2017-12-19T14:02:22.814Z,91.70
2017-12-19T14:04:50.241Z,91.70
2017-12-19T14:07:17.664Z,91.70
2017-12-19T14:09:45.187Z,91.70
2017-12-19T14:12:12.632Z,91.70
2017-12-19T14:14:40.061Z,91.70
2017-12-19T14:17:08.370Z,91.70
2017-12-19T14:19:35.801Z,91.70
2017-12-19T14:22:03.228Z,91.70
2017-12-19T14:24:32.177Z,91.70
2017-12-19T14:26:59.613Z,91.70
2017-12-19T14:29:27.037Z,91.70
2017-12-19T14:31:56.598Z,91.60
2017-12-19T14:34:24.021Z,91.60
2017-12-19T14:36:51.454Z,91.60
2017-12-19T14:39:19.661Z,91.80
2017-12-19T14:41:47.109Z,91.70
2017-12-19T14:44:14.592Z,92.00
2017-12-19T14:46:42.034Z,91.70
2017-12-19T14:49:09.460Z,91.70
2017-12-19T14:51:37.657Z,91.70
2017-12-19T14:54:05.098Z,91.70
2017-12-19T14:56:33.288Z,91.80
2017-12-19T14:59:00.770Z,91.70
2017-12-19T15:01:28.218Z,91.80
2017-12-19T15:03:55.684Z,91.80
2017-12-19T15:06:23.146Z,91.80
2017-12-19T15:08:50.906Z,91.80
2017-12-19T15:11:18.367Z,91.80
2017-12-19T15:13:45.841Z,91.80
2017-12-19T15:16:13.285Z,91.80
2017-12-19T15:18:40.724Z,91.80
2017-12-19T15:21:08.146Z,91.80
2017-12-19T15:23:35.590Z,91.90
2017-12-19T15:26:03.028Z,91.90
2017-12-19T15:28:30.455Z,91.90
2017-12-19T15:30:57.888Z,91.90
2017-12-19T15:33:25.314Z,91.90
2017-12-19T15:35:52.745Z,92.00
2017-12-19T15:38:20.949Z,92.00
2017-12-19T15:40:49.182Z,92.00
2017-12-19T15:43:16.616Z,91.90
2017-12-19T15:45:44.052Z,92.00
2017-12-19T15:48:12.276Z,92.00
2017-12-19T15:50:39.709Z,92.00
2017-12-19T15:53:07.182Z,92.00
2017-12-19T15:55:34.693Z,92.00
2017-12-19T15:58:02.893Z,92.10
2017-12-19T16:00:30.337Z,92.10
2017-12-19T16:02:58.549Z,92.10
2017-12-19T16:05:26.005Z,92.10
2017-12-19T16:07:53.452Z,92.10
2017-12-19T16:10:20.928Z,92.10
2017-12-19T16:12:48.370Z,92.10
2017-12-19T16:15:15.809Z,92.10
2017-12-19T16:17:43.237Z,92.10
2017-12-19T16:20:11.438Z,92.10
2017-12-19T16:22:38.877Z,92.10
2017-12-19T16:25:07.073Z,92.10
2017-12-19T16:27:34.501Z,92.10
2017-12-19T16:30:02.743Z,92.10
2017-12-19T16:32:30.193Z,92.10
2017-12-19T16:34:57.644Z,92.10
2017-12-19T16:37:25.087Z,92.10
2017-12-19T16:39:52.524Z,92.10
2017-12-19T16:42:19.948Z,92.20
2017-12-19T16:44:48.208Z,92.20
2017-12-19T16:47:15.613Z,92.20
2017-12-19T16:49:43.058Z,92.20
2017-12-19T16:52:10.557Z,92.10
2017-12-19T16:54:37.987Z,92.10
2017-12-19T16:57:05.421Z,92.10
2017-12-19T16:59:33.641Z,92.00
2017-12-19T17:02:01.107Z,92.00
2017-12-19T17:04:28.661Z,92.00
2017-12-19T17:06:56.106Z,92.00
2017-12-19T17:09:23.585Z,92.10
2017-12-19T17:11:51.040Z,92.10
2017-12-19T17:14:18.483Z,92.10
2017-12-19T17:16:45.916Z,92.10
2017-12-19T17:19:13.351Z,92.10
2017-12-19T17:21:41.566Z,92.10
2017-12-19T17:24:09.076Z,92.00
2017-12-19T17:26:36.505Z,92.00
2017-12-19T17:29:03.953Z,92.00
2017-12-19T17:31:31.420Z,92.00
2017-12-19T17:33:58.856Z,92.10
2017-12-19T17:36:26.329Z,92.00
2017-12-19T17:38:53.780Z,92.10
2017-12-19T17:41:21.209Z,92.10
2017-12-19T17:43:48.693Z,92.10
2017-12-19T17:46:16.132Z,92.10
2017-12-19T17:48:43.570Z,92.10
2017-12-19T17:51:11.781Z,92.10
2017-12-19T17:53:39.262Z,92.10
2017-12-19T17:56:06.797Z,92.10
2017-12-19T17:58:34.242Z,92.10
2017-12-19T18:01:02.529Z,92.10
2017-12-19T18:03:30.038Z,92.10
2017-12-19T18:05:58.981Z,92.10
2017-12-19T18:08:26.409Z,92.10
2017-12-19T18:10:53.898Z,92.10
2017-12-19T18:13:21.356Z,92.10
2017-12-19T18:15:48.785Z,92.10
2017-12-19T18:18:16.801Z,92.10
2017-12-19T18:20:44.541Z,92.20
2017-12-19T18:23:12.001Z,92.10
2017-12-19T18:25:39.437Z,92.20
2017-12-19T18:28:06.883Z,92.10
2017-12-19T18:30:34.309Z,92.20
2017-12-19T18:33:01.833Z,92.20
2017-12-19T18:35:29.281Z,92.20
2017-12-19T18:37:56.756Z,92.10
2017-12-19T18:40:24.185Z,92.20
2017-12-19T18:42:51.645Z,92.20
2017-12-19T18:45:19.072Z,92.20
2017-12-19T18:47:47.278Z,92.20
2017-12-19T18:50:14.717Z,92.20
2017-12-19T18:52:42.201Z,92.20
2017-12-19T18:55:09.660Z,92.20
2017-12-19T18:57:37.432Z,92.50
2017-12-19T19:00:04.886Z,92.20
2017-12-19T19:02:32.314Z,92.20
2017-12-19T19:04:59.758Z,92.20
2017-12-19T19:07:27.190Z,92.20
2017-12-19T19:09:56.141Z,92.30
2017-12-19T19:12:23.607Z,92.30
2017-12-19T19:14:51.037Z,92.30
2017-12-19T19:17:18.469Z,92.30
2017-12-19T19:19:46.688Z,92.30
2017-12-19T19:22:14.113Z,92.30
2017-12-19T19:24:41.541Z,92.30
2017-12-19T19:27:09.792Z,92.30
2017-12-19T19:29:37.251Z,92.30
2017-12-19T19:32:04.706Z,92.30
2017-12-19T19:34:32.259Z,92.30
2017-12-19T19:36:59.802Z,92.40
2017-12-19T19:39:27.274Z,92.40
2017-12-19T19:41:54.733Z,92.40
2017-12-19T19:44:22.173Z,92.40
2017-12-19T19:46:49.641Z,92.40
2017-12-19T19:49:20.563Z,92.40
2017-12-19T19:51:48.131Z,92.40
2017-12-19T19:54:15.636Z,92.40
2017-12-19T19:56:43.073Z,92.40
2017-12-19T19:59:10.617Z,92.40
2017-12-19T20:01:38.065Z,92.40
2017-12-19T20:04:05.525Z,92.40
2017-12-19T20:06:32.989Z,92.50
2017-12-19T20:09:00.441Z,92.50
2017-12-19T20:11:27.891Z,92.50
2017-12-19T20:13:55.356Z,92.50
2017-12-19T20:16:22.817Z,92.50
2017-12-19T20:18:50.261Z,92.50
2017-12-19T20:21:17.727Z,92.50
2017-12-19T20:23:46.241Z,92.50
2017-12-19T20:26:13.950Z,92.50
2017-12-19T20:28:41.425Z,92.50
2017-12-19T20:31:08.872Z,92.50
2017-12-19T20:33:36.366Z,92.50
2017-12-19T20:36:03.772Z,92.50
2017-12-19T20:38:31.196Z,92.50
2017-12-19T20:40:58.715Z,92.50
2017-12-19T20:43:26.155Z,92.50
2017-12-19T20:45:53.573Z,92.50
2017-12-19T20:48:21.801Z,92.50
2017-12-19T20:50:49.247Z,92.50
2017-12-19T20:53:16.712Z,92.50
2017-12-19T20:55:44.401Z,92.50
2017-12-19T20:58:12.304Z,92.50
2017-12-19T21:00:41.235Z,92.50
2017-12-19T21:03:08.684Z,92.50
2017-12-19T21:05:36.113Z,92.50
2017-12-19T21:08:04.324Z,92.90
2017-12-19T21:10:32.124Z,92.50
2017-12-19T21:12:59.525Z,92.60
2017-12-19T21:15:27.005Z,92.60
2017-12-19T21:17:54.457Z,92.60
2017-12-19T21:20:21.917Z,92.60
2017-12-19T21:22:49.369Z,92.60
2017-12-19T21:25:16.805Z,92.60
2017-12-19T21:27:44.236Z,92.90
2017-12-19T21:30:11.680Z,92.60
2017-12-19T21:32:39.116Z,92.60
2017-12-19T21:35:06.570Z,92.60
2017-12-19T21:37:35.793Z,92.60
2017-12-19T21:40:03.333Z,92.60
2017-12-19T21:42:30.788Z,92.60
2017-12-19T21:44:58.222Z,92.70
2017-12-19T21:47:25.713Z,92.70
2017-12-19T21:49:53.168Z,92.60
2017-12-19T21:52:20.641Z,92.60
2017-12-19T21:54:48.684Z,92.70
2017-12-19T21:57:16.126Z,92.70
2017-12-19T21:59:43.560Z,92.60
2017-12-19T22:02:11.776Z,92.60
2017-12-19T22:04:39.216Z,92.60
2017-12-19T22:07:06.641Z,92.60
2017-12-19T22:09:34.841Z,92.70
2017-12-19T22:12:02.277Z,92.70
2017-12-19T22:14:30.469Z,92.70
2017-12-19T22:16:58.165Z,92.60
2017-12-19T22:19:25.637Z,92.60
2017-12-19T22:21:53.076Z,92.60
2017-12-19T22:24:20.847Z,92.70
2017-12-19T22:26:48.281Z,92.60
2017-12-19T22:29:15.761Z,92.60
2017-12-19T22:31:43.213Z,92.60
2017-12-19T22:34:10.672Z,92.70
2017-12-19T22:36:38.101Z,92.60
2017-12-19T22:39:05.547Z,92.60
2017-12-19T22:41:33.757Z,92.70
2017-12-19T22:44:01.209Z,92.70
2017-12-19T22:46:28.636Z,92.70
2017-12-19T22:48:56.838Z,93.00
2017-12-19T22:51:24.272Z,92.70
2017-12-19T22:53:51.713Z,92.70
2017-12-19T22:56:20.024Z,92.80
2017-12-19T22:58:49.009Z,92.70
2017-12-19T23:01:16.488Z,92.70
2017-12-19T23:03:43.977Z,92.70
2017-12-19T23:06:11.405Z,92.70
2017-12-19T23:08:38.906Z,92.70
2017-12-19T23:11:06.287Z,92.70
2017-12-19T23:13:34.479Z,92.70
2017-12-19T23:16:01.944Z,92.70
2017-12-19T23:18:29.350Z,92.70
2017-12-19T23:20:57.550Z,93.00
2017-12-19T23:23:25.037Z,92.70
2017-12-19T23:25:52.492Z,92.70
2017-12-19T23:28:19.924Z,92.70
2017-12-19T23:30:47.389Z,92.70
2017-12-19T23:33:14.867Z,92.70
2017-12-19T23:35:42.318Z,92.70
2017-12-19T23:38:09.745Z,92.70
2017-12-19T23:40:37.242Z,92.70
2017-12-19T23:43:04.665Z,92.70
2017-12-19T23:45:32.105Z,92.70
2017-12-19T23:48:00.333Z,92.70
2017-12-19T23:50:27.757Z,92.70
2017-12-19T23:52:55.196Z,92.70
2017-12-19T23:55:23.388Z,92.70
2017-12-19T23:57:50.820Z,92.70
